createdAt,value
2022-09-18T00:03:06.785Z,10.90
2022-09-18T00:08:09.161Z,10.93
2022-09-18T00:13:11.229Z,11.04
2022-09-18T00:18:12.872Z,10.99
2022-09-18T00:23:15.572Z,10.95
2022-09-18T00:28:17.210Z,11.02
2022-09-18T00:33:18.872Z,11.01
2022-09-18T00:38:20.518Z,11.01
2022-09-18T00:43:27.654Z,10.91
2022-09-18T00:48:44.843Z,10.95
2022-09-18T00:54:20.103Z,10.97
2022-09-18T00:59:32.081Z,10.98
2022-09-18T01:04:33.764Z,11.04
2022-09-18T01:10:04.671Z,11.07
2022-09-18T01:15:22.678Z,10.95
2022-09-18T01:20:34.620Z,10.95
2022-09-18T01:25:57.330Z,10.92
2022-09-18T01:31:11.882Z,10.88
2022-09-18T01:36:17.567Z,10.93
2022-09-18T01:41:24.092Z,10.97
2022-09-18T01:46:26.188Z,10.84
2022-09-18T01:51:36.129Z,10.85
2022-09-18T01:56:44.665Z,10.82
2022-09-18T02:01:48.087Z,10.66
2022-09-18T02:07:14.358Z,10.68
2022-09-18T02:12:21.197Z,10.63
2022-09-18T02:17:32.728Z,10.64
2022-09-18T02:22:35.198Z,10.73
2022-09-18T02:27:39.837Z,10.68
2022-09-18T02:32:41.910Z,10.65
2022-09-18T02:38:03.897Z,10.62
2022-09-18T02:43:08.536Z,10.78
2022-09-18T02:48:39.975Z,10.63
2022-09-18T02:54:11.122Z,10.68
2022-09-18T02:59:22.890Z,10.73
2022-09-18T03:04:27.511Z,10.76
2022-09-18T03:09:30.143Z,10.71
2022-09-18T03:14:31.750Z,10.70
2022-09-18T03:19:33.378Z,10.75
2022-09-18T03:24:35.098Z,10.75
2022-09-18T03:29:36.961Z,10.74
2022-09-18T03:34:39.261Z,10.74
2022-09-18T03:39:40.898Z,10.70
2022-09-18T03:44:42.827Z,10.74
2022-09-18T03:49:44.440Z,10.74
2022-09-18T03:54:46.089Z,10.71
2022-09-18T03:59:47.715Z,10.70
2022-09-18T04:04:49.365Z,10.51
2022-09-18T04:09:51.058Z,10.58
2022-09-18T04:14:52.730Z,10.62
2022-09-18T04:19:54.965Z,10.60
2022-09-18T04:24:56.594Z,10.62
2022-09-18T04:29:58.259Z,10.54
2022-09-18T04:34:59.888Z,10.58
2022-09-18T04:40:01.723Z,10.50
2022-09-18T04:45:04.454Z,10.54
2022-09-18T04:50:08.805Z,10.54
2022-09-18T04:55:10.650Z,10.56
2022-09-18T05:00:12.494Z,10.53
2022-09-18T05:05:14.204Z,10.47
2022-09-18T05:10:16.022Z,10.53
2022-09-18T05:15:18.961Z,10.51
2022-09-18T05:20:20.711Z,10.44
2022-09-18T05:25:24.988Z,10.49
2022-09-18T05:30:27.444Z,10.52
2022-09-18T05:35:31.513Z,10.60
2022-09-18T05:40:35.472Z,10.64
2022-09-18T05:45:37.528Z,10.72
2022-09-18T05:50:40.200Z,10.73
2022-09-18T05:55:42.779Z,10.81
2022-09-18T06:00:45.745Z,10.90
2022-09-18T06:05:54.536Z,11.06
2022-09-18T06:11:01.009Z,11.19
2022-09-18T06:16:02.963Z,11.37
2022-09-18T06:21:04.692Z,11.13
2022-09-18T06:26:09.410Z,11.08
2022-09-18T06:31:14.426Z,11.13
2022-09-18T06:36:16.572Z,11.18
2022-09-18T06:41:18.230Z,11.31
2022-09-18T06:46:19.858Z,11.42
2022-09-18T06:51:21.529Z,11.16
2022-09-18T06:56:23.172Z,11.22
2022-09-18T07:01:24.932Z,11.25
2022-09-18T07:06:26.895Z,11.35
2022-09-18T07:11:28.541Z,11.40
2022-09-18T07:16:30.282Z,11.50
2022-09-18T07:21:32.042Z,11.65
2022-09-18T07:26:33.684Z,11.77
2022-09-18T07:31:36.225Z,12.12
2022-09-18T07:36:38.000Z,12.22
2022-09-18T07:41:39.608Z,12.11
2022-09-18T07:46:41.298Z,12.29
2022-09-18T07:51:42.937Z,12.53
2022-09-18T07:56:46.913Z,13.03
2022-09-18T08:01:48.945Z,13.32
2022-09-18T08:06:53.087Z,13.39
2022-09-18T08:11:54.741Z,13.12
2022-09-18T08:16:58.008Z,13.09
2022-09-18T08:21:59.674Z,12.96
2022-09-18T08:27:03.520Z,12.88
2022-09-18T08:32:11.778Z,12.70
2022-09-18T08:37:20.473Z,12.59
2022-09-18T08:42:44.559Z,12.41
2022-09-18T08:47:57.779Z,12.58
2022-09-18T08:53:32.254Z,12.54
2022-09-18T08:58:52.554Z,12.63
2022-09-18T09:04:06.980Z,12.59
2022-09-18T09:09:29.877Z,12.59
2022-09-18T09:15:02.558Z,12.64
2022-09-18T09:20:30.003Z,12.60
2022-09-18T09:25:51.910Z,12.93
2022-09-18T09:30:59.239Z,12.98
2022-09-18T09:36:10.881Z,12.95
2022-09-18T09:41:27.848Z,13.14
2022-09-18T09:47:00.580Z,13.10
2022-09-18T09:52:26.245Z,13.35
2022-09-18T09:57:57.862Z,13.67
2022-09-18T10:03:01.734Z,13.75
2022-09-18T10:08:45.284Z,13.87
2022-09-18T10:14:11.196Z,14.44
2022-09-18T10:19:21.044Z,14.74
2022-09-18T10:24:48.524Z,14.85
2022-09-18T10:29:57.262Z,14.90
2022-09-18T10:35:00.013Z,15.08
2022-09-18T10:40:02.850Z,15.11
2022-09-18T10:45:07.573Z,15.23
2022-09-18T10:50:20.006Z,14.79
2022-09-18T10:55:25.794Z,14.48
2022-09-18T11:00:29.568Z,14.27
2022-09-18T11:05:49.789Z,13.73
2022-09-18T11:11:01.717Z,13.73
2022-09-18T11:16:09.126Z,14.21
2022-09-18T11:21:12.023Z,14.27
2022-09-18T11:26:29.200Z,14.24
2022-09-18T11:32:02.429Z,14.44
2022-09-18T11:37:34.807Z,14.17
2022-09-18T11:42:48.059Z,14.15
2022-09-18T11:54:37.815Z,14.49
2022-09-18T11:59:51.806Z,14.80
2022-09-18T12:05:06.348Z,14.92
2022-09-18T12:10:26.497Z,14.79
2022-09-18T12:15:39.641Z,14.85
2022-09-18T12:20:58.338Z,14.84
2022-09-18T12:26:05.892Z,14.70
2022-09-18T12:31:24.163Z,14.55
2022-09-18T12:37:00.164Z,14.31
2022-09-18T12:42:14.578Z,14.44
2022-09-18T12:47:53.428Z,14.27
2022-09-18T12:53:27.252Z,14.35
2022-09-18T12:58:40.738Z,14.54
2022-09-18T13:03:44.164Z,14.42
2022-09-18T13:08:56.419Z,14.55
2022-09-18T13:14:26.411Z,14.67
2022-09-18T13:19:41.178Z,14.83
2022-09-18T13:24:45.920Z,14.35
2022-09-18T13:29:53.551Z,14.18
2022-09-18T13:34:59.469Z,14.10
2022-09-18T13:40:10.480Z,14.16
2022-09-18T13:45:12.646Z,14.33
2022-09-18T13:50:18.725Z,14.52
2022-09-18T13:55:20.323Z,14.50
2022-09-18T14:00:21.918Z,14.21
2022-09-18T14:05:39.965Z,13.78
2022-09-18T14:11:15.781Z,13.74
2022-09-18T14:16:40.960Z,13.50
2022-09-18T14:21:44.600Z,13.58
2022-09-18T14:26:47.210Z,13.65
2022-09-18T14:31:54.448Z,13.61
2022-09-18T14:37:00.139Z,13.54
2022-09-18T14:42:05.915Z,13.60
2022-09-18T14:47:21.906Z,13.70
2022-09-18T14:52:32.356Z,13.60
2022-09-18T14:57:43.798Z,13.24
2022-09-18T15:02:50.986Z,13.17
2022-09-18T15:08:16.603Z,13.09
2022-09-18T15:13:21.577Z,13.08
2022-09-18T15:18:27.575Z,12.98
2022-09-18T15:23:32.467Z,12.91
2022-09-18T15:28:36.586Z,12.82
2022-09-18T15:33:57.431Z,12.72
2022-09-18T15:39:00.751Z,12.61
2022-09-18T15:44:03.699Z,12.48
2022-09-18T15:49:34.568Z,12.19
2022-09-18T15:54:36.197Z,12.17
2022-09-18T15:59:41.109Z,12.13
2022-09-18T16:04:43.102Z,12.13
2022-09-18T16:09:46.987Z,12.09
2022-09-18T16:15:15.292Z,11.85
2022-09-18T16:20:34.026Z,11.82
2022-09-18T16:25:38.283Z,11.91
2022-09-18T16:30:39.910Z,11.93
2022-09-18T16:35:41.558Z,11.93
2022-09-18T16:40:43.840Z,11.89
2022-09-18T16:45:48.054Z,11.77
2022-09-18T16:50:49.757Z,11.69
2022-09-18T16:55:55.496Z,11.74
2022-09-18T17:00:59.133Z,11.65
2022-09-18T17:06:02.199Z,11.49
2022-09-18T17:11:05.178Z,11.55
2022-09-18T17:16:06.942Z,11.58
2022-09-18T17:21:08.817Z,11.65
2022-09-18T17:26:14.419Z,11.58
2022-09-18T17:31:20.832Z,11.51
2022-09-18T17:36:31.141Z,11.46
2022-09-18T17:41:39.352Z,11.49
2022-09-18T17:46:43.258Z,11.61
2022-09-18T17:51:54.091Z,11.55
2022-09-18T17:57:12.525Z,11.23
2022-09-18T18:02:15.341Z,10.36
2022-09-18T18:07:54.283Z,9.61
2022-09-18T18:12:57.998Z,9.43
2022-09-18T18:17:59.901Z,9.31
2022-09-18T18:23:02.719Z,9.44
2022-09-18T18:28:09.562Z,9.54
2022-09-18T18:33:11.208Z,9.56
2022-09-18T18:38:13.260Z,9.64
2022-09-18T18:43:15.429Z,9.74
2022-09-18T18:48:22.906Z,9.83
2022-09-18T18:53:24.548Z,9.99
2022-09-18T18:58:26.733Z,10.08
2022-09-18T19:03:28.390Z,10.13
2022-09-18T19:08:30.060Z,10.09
2022-09-18T19:13:39.506Z,10.07
2022-09-18T19:18:41.838Z,10.11
2022-09-18T19:23:43.506Z,10.19
2022-09-18T19:28:53.671Z,10.19
2022-09-18T19:33:56.252Z,10.16
2022-09-18T19:39:00.689Z,10.17
2022-09-18T19:44:04.955Z,10.24
2022-09-18T19:49:18.889Z,10.22
2022-09-18T19:54:20.519Z,10.24
2022-09-18T19:59:22.172Z,10.16
2022-09-18T20:04:25.123Z,10.12
2022-09-18T20:09:29.306Z,10.05
2022-09-18T20:14:30.978Z,10.06
2022-09-18T20:19:32.623Z,9.95
2022-09-18T20:24:34.286Z,9.81
2022-09-18T20:29:35.936Z,9.72
2022-09-18T20:34:38.254Z,9.61
2022-09-18T20:39:40.206Z,9.42
2022-09-18T20:44:42.200Z,9.17
2022-09-18T20:49:46.209Z,8.80
2022-09-18T20:54:48.223Z,8.69
2022-09-18T20:59:49.833Z,8.56
2022-09-18T21:04:52.290Z,8.42
2022-09-18T21:09:57.690Z,8.29
2022-09-18T21:15:02.239Z,8.28
2022-09-18T21:20:05.130Z,8.26
2022-09-18T21:25:07.341Z,8.17
2022-09-18T21:30:09.440Z,8.09
2022-09-18T21:35:11.080Z,8.03
2022-09-18T21:40:13.018Z,7.94
2022-09-18T21:45:20.721Z,7.91
2022-09-18T21:50:23.080Z,7.86
2022-09-18T21:55:24.706Z,7.86
2022-09-18T22:00:26.350Z,7.89
2022-09-18T22:05:29.394Z,7.96
2022-09-18T22:10:31.010Z,7.96
2022-09-18T22:15:32.677Z,7.82
2022-09-18T22:20:37.674Z,7.82
2022-09-18T22:25:40.374Z,7.85
2022-09-18T22:30:42.106Z,7.83
2022-09-18T22:35:43.733Z,7.89
2022-09-18T22:40:45.328Z,7.94
2022-09-18T22:45:46.938Z,7.95
2022-09-18T22:50:48.566Z,8.00
2022-09-18T22:55:50.177Z,8.08
2022-09-18T23:00:51.948Z,8.22
2022-09-18T23:05:53.562Z,8.36
2022-09-18T23:10:57.033Z,8.41
2022-09-18T23:16:07.212Z,8.54
2022-09-18T23:21:11.525Z,8.55
2022-09-18T23:26:19.422Z,8.57
2022-09-18T23:31:29.850Z,8.59
2022-09-18T23:36:35.878Z,8.66
2022-09-18T23:41:38.377Z,8.65
2022-09-18T23:46:40.129Z,8.76
2022-09-18T23:51:44.372Z,8.90
2022-09-18T23:56:47.439Z,8.96
